< < Back
Terminal Aerodrome Forecast


Current Version              Previous Versions:   1  2  3  4  5  6  7  8  9  

Terminal Aerodrome Forecast

201
FTUS42 KGSP 301120
TAFCLT
TAF
KCLT 301120Z 3012/3112 22005KT 6SM -SHRA SCT035 OVC060
      TEMPO 3012/3014 5SM -SHRA BR SCT020 BKN035
     FM301500 23007KT P6SM BKN025
     FM301700 26007KT P6SM BKN060
     FM301900 30009KT P6SM SCT250
     FM310000 34004KT P6SM FEW250=



Latest METAR

196
SAUS70 KWBC 301300
MTRCLT
METAR KCLT 301252Z 27005KT 8SM -RA FEW015 OVC070 05/03 A3009 RMK AO2
SLP191 P0019 T00500028


USA.gov is the U.S. government's official web portal to all federal, state and local government web resources and services.